Meteo Giornale » Osservazioni meteo Italia » Decimomannu

ore: 11:55 - Osservazioni Meteo Decimomannu
Lat. 39° 21' N Lon. 8° 58' E Alt. 29 metri s.l.m.

nuvoloso Europe/Rome

27 °C

Nuvoloso

Temp. 24 Ore

23 °C

32 °C

Ovest/Nord-Ovest

37 Km/h

Dew point 18 °C

Umidità 57 %

Visibilità  10 Km

Il sole sorge alle ore 06:17

Il sole tramonta alle ore 20:44

Data e Ora Cielo e Fenomeni T °C DP °C Um. % Pres. hPa Vis. km Vento km/h
Oggi h: 11:55 nuvoloso Nuvoloso 27 18 57 1010 10 O/NO 37
Oggi h: 10:55 nuvoloso Nuvoloso 27 18 57 1010 10 O/NO 33.3
Oggi h: 09:55 nuvoloso Nuvoloso 26 19 65 1010 10 O/NO 33.3
Oggi h: 08:55 nuvoloso Nuvoloso 25 19 69 1010 10 O/NO 37
Oggi h: 07:55 nuvoloso Nuvoloso 24 19 73 1010 10 O/NO 33.3
Oggi h: 06:55 nuvoloso Nuvoloso 23 19 78 1010 10 NO 20.3
Oggi h: 05:55 poco_nuvoloso Poco Nuvoloso 23 19 78 1010 10 N/NO 18.5
Oggi h: 04:55 poco_nuvoloso Poco Nuvoloso 24 21 83 1010 10 O/NO 22.2
Oggi h: 03:55 poco_nuvoloso Poco Nuvoloso 24 20 78 1010 10 O/NO 20.3
Oggi h: 02:55 poco_nuvoloso Poco Nuvoloso 25 20 73 1011 10 O/NO 27.8
Oggi h: 01:55 sereno Sereno 25 20 73 1011 10 O/NO 31.5
Oggi h: 00:55 sereno Sereno 25 20 73 1012 10 O/NO 35.2
Ieri h: 23:55 sereno Sereno 25 21 78 1011 10 O/NO 25.9
Ieri h: 22:55 sereno Sereno 24 21 83 1012 10 N/NO 16.7
Ieri h: 21:55 poco_nuvoloso Poco Nuvoloso 25 20 73 1012 10 NO 27.8
Ieri h: 20:55 poco_nuvoloso Poco Nuvoloso 25 20 73 1011 10 NO 27.8
Ieri h: 19:55 poco_nuvoloso Poco Nuvoloso 26 19 65 1011 10 N/NO 35.2
Ieri h: 18:55 sereno Sereno 27 20 65 1011 10 N/NO 40.7
Ieri h: 17:55 poco_nuvoloso Poco Nuvoloso 29 20 58 1010 10 NO 42.6
Ieri h: 16:55 sereno Sereno 30 18 48 1011 10 NO 42.6
Ieri h: 15:55 sereno Sereno 31 18 45 1011 10 NO 40.7
Ieri h: 14:55 sereno Sereno 32 17 40 1011 10 N/NO 40.7
Ieri h: 13:55 sereno Sereno 32 16 38 1011 10 NO 37
Ieri h: 12:55 sereno Sereno 31 20 52 1011 10 N/NO 35.2